Parets del Valles, Spain
Current Conditions -  °F | °C
As of 3:00 PM on Saturday 25 Oct 2014 (Local Time) from LELL Reporting Station
Clear Clear  
Wind Chill: 82°   Ceiling: Unl
Heat Index: 82°   Visibility: 6mi
Dew Point: 52°   Wind: 3mph
Humidity: 35%   Direction: 190°S
Pressure: 30.06"   Gusts: NA
Location:  41.58°N, 2.23°E
Report Text: LELL 251300Z 19003KT 150V240 CAVOK 28/11 Q1018
Loading
Personal Weather Stations






























Interactive Weather Map
Tropical Storm Tracking
New forecast layout! Learn more

10-Day Weather Forecast

Advertisements
Track Severe Weather on mobile